Date,TemperatureHighF,TemperatureAvgF,TemperatureLowF,DewpointHighF,DewpointAvgF,DewpointLowF,HumidityHigh,HumidityAvg,HumidityLow,PressureMaxIn,PressureMinIn,WindSpeedMaxMPH,WindSpeedAvgMPH,GustSpeedMaxMPH,PrecipitationSumIn
2014-2-3,65,50,40,60,45,34,89,83,75,30.34,29.95,12,1,0,0.00
2014-2-4,40,38,37,35,34,32,89,83,79,30.48,30.16,8,0,0,0.00
2014-2-5,52,43,38,48,39,31,90,87,66,30.17,29.85,10,0,0,0.00
2014-2-6,44,37,30,30,25,21,70,61,49,30.39,30.15,8,0,0,0.00
2014-2-7,54,40,34,34,29,26,77,64,44,30.41,30.31,2,0,0,0.00
2014-2-8,50,38,31,32,28,25,82,66,46,30.35,30.19,8,0,0,0.00
2014-2-9,53,40,27,39,32,23,87,74,55,30.25,30.03,8,0,0,0.00
2014-2-10,40,36,33,32,30,27,87,81,59,30.31,30.07,6,0,0,0.00
2014-2-11,34,31,24,31,22,14,88,69,55,30.47,30.30,7,0,0,0.00
2014-2-12,30,25,23,26,17,12,86,70,53,30.49,29.85,11,1,0,0.00
2014-2-13,34,32,30,31,29,26,89,88,86,29.85,29.50,1,0,0,0.00
2014-2-14,58,38,27,35,30,24,88,74,39,29.87,29.72,57,1,0,0.00
2014-2-15,48,40,37,38,32,18,88,74,43,29.99,29.62,8,0,0,0.00
2014-2-16,52,49,43,30,29,26,59,46,40,30.18,30.07,8,0,0,0.00
2014-2-25,34,33,32,24,23,22,66,66,65,30.06,30.04,0,0,0,0.00
2014-2-26,49,38,28,28,23,17,73,56,40,30.04,29.84,7,0,0,0.00
2014-2-27,56,38,19,26,17,11,80,47,24,30.08,29.80,11,0,0,0.00
2014-2-28,47,35,26,18,13,9,54,41,30,30.40,30.08,9,0,0,0.00
2014-3-1,56,39,29,36,23,12,82,54,43,30.43,30.28,5,0,0,0.00
2014-3-2,73,52,30,47,38,26,88,63,38,30.30,29.97,8,0,0,0.00
2014-3-3,60,38,20,46,31,12,84,77,60,30.36,29.91,15,1,0,0.00
2014-3-4,39,27,15,19,13,6,73,55,40,30.43,30.27,7,0,0,0.00
2014-3-5,44,35,28,22,18,15,66,51,40,30.36,30.19,4,0,0,0.00
2014-3-6,42,35,28,29,23,14,86,63,47,30.45,30.19,8,1,0,0.00
2014-3-7,35,34,32,32,30,28,88,87,86,30.19,29.94,13,1,0,0.00
2014-3-8,70,46,26,48,36,23,89,71,41,30.14,30.02,5,0,0,0.00
2014-3-9,68,50,36,45,37,32,88,65,35,30.15,30.03,10,0,0,0.00
2014-3-10,76,52,31,43,34,27,88,58,22,30.09,29.87,4,0,0,0.00
2014-3-11,81,59,37,47,39,32,84,53,24,29.89,29.74,7,0,0,0.00
2014-3-12,70,59,43,57,48,28,85,68,55,29.78,29.29,7,0,0,0.04
2014-3-13,47,38,26,28,17,11,66,44,27,30.30,29.70,9,0,0,0.04
2014-3-14,62,42,20,33,21,15,79,49,23,30.40,30.16,57,0,0,0.00
2014-3-15,74,57,45,41,37,33,68,50,29,30.16,30.02,8,0,0,0.00
2014-3-16,56,46,37,40,34,30,86,65,40,30.13,29.92,8,0,0,0.00
2014-3-17,36,33,31,32,29,27,87,86,84,30.05,29.89,8,0,0,0.00
2014-3-18,36,33,30,33,30,27,88,88,87,30.25,30.01,7,0,0,0.00
2014-3-19,47,41,35,43,37,32,89,88,85,30.25,30.05,7,0,0,0.00
2014-3-20,68,51,38,50,38,32,90,66,30,30.11,29.99,7,0,0,0.00
2014-3-21,71,50,28,40,32,24,87,56,27,30.22,30.11,7,0,0,0.00
2014-3-22,77,60,46,46,40,32,76,50,30,30.15,29.99,8,0,0,0.00
2014-3-23,58,45,35,41,37,31,87,75,44,30.22,30.00,9,0,0,0.00
2014-3-24,52,40,28,33,26,23,88,63,34,30.36,30.17,7,0,0,0.00
2014-3-25,47,39,33,36,29,23,82,68,52,30.17,29.83,8,0,0,0.00
2014-3-26,50,37,27,28,20,15,83,52,30,30.39,30.00,7,0,0,0.00
2014-3-27,61,42,22,36,22,16,78,50,26,30.53,30.35,9,0,0,0.00
2014-3-28,69,56,42,58,48,35,89,73,58,30.36,30.18,8,0,0,0.00
2014-3-29,65,60,55,61,57,52,90,89,87,30.20,29.63,7,0,0,0.00
2014-3-30,62,48,42,59,37,30,90,66,51,30.01,29.63,14,1,0,0.00
2014-3-31,74,53,37,36,31,26,75,47,22,30.17,30.01,7,0,0,0.00
2014-4-1,82,58,37,44,38,32,83,54,23,30.22,30.07,7,0,0,0.00
2014-4-2,88,65,44,51,43,37,78,50,22,30.16,30.05,8,0,0,0.00
2014-4-3,80,61,48,56,47,40,78,62,43,30.17,29.99,7,0,0,0.00
2014-4-4,83,68,52,57,52,45,82,58,30,29.98,29.81,9,1,0,0.00
2014-4-5,74,63,50,55,42,32,81,49,30,30.15,29.87,8,0,0,0.00
2014-4-6,61,53,45,38,33,28,58,46,36,30.29,30.16,9,0,0,0.00
2014-4-7,63,50,42,59,44,34,89,81,52,30.18,29.73,8,0,0,0.00
2014-4-8,69,62,54,60,52,40,89,71,49,29.77,29.65,7,0,0,0.00
2014-4-9,69,56,43,50,42,38,87,62,37,30.17,29.76,8,0,0,0.00
2014-4-10,76,57,36,48,40,32,89,58,30,30.35,30.18,8,0,0,0.00
2014-4-11,80,66,53,49,45,41,65,50,31,30.29,30.12,12,1,0,0.00
2014-4-12,84,67,50,54,50,44,83,55,33,30.30,30.19,9,0,0,0.00
2014-4-13,83,70,58,60,55,50,80,59,44,30.30,30.15,8,1,0,0.00
2014-4-14,78,68,62,61,57,53,86,70,53,30.19,29.94,9,1,0,0.00
2014-4-15,71,61,39,64,56,33,89,84,68,30.09,29.68,13,1,0,0.00
2014-4-16,56,43,32,33,27,23,76,57,35,30.53,30.09,15,1,0,0.00
2014-4-17,65,48,29,40,33,24,84,59,35,30.63,30.48,8,0,0,0.00
2014-4-18,64,50,38,44,39,33,84,67,46,30.54,30.31,8,0,0,0.00
2014-4-19,53,49,45,47,44,42,88,83,69,30.31,30.21,9,0,0,0.00
2014-4-20,69,58,48,46,41,35,71,54,43,30.33,30.25,12,1,0,0.00
2014-4-21,76,56,41,43,37,32,76,52,24,30.29,30.01,7,0,0,0.00
2014-4-22,84,64,44,58,48,38,83,61,35,30.01,29.75,7,0,0,0.00
2014-4-23,72,61,46,54,42,32,86,53,27,30.07,29.77,11,0,0,0.00
2014-4-24,73,55,37,42,37,31,83,54,29,30.23,30.07,8,0,0,0.00
2014-4-25,81,62,46,66,53,40,86,75,54,30.09,29.71,12,0,0,0.00
2014-4-26,81,65,46,53,49,41,86,59,33,30.08,29.91,11,0,0,0.00
2014-4-27,87,68,47,56,50,42,86,57,30,30.10,29.99,9,0,0,0.00
2014-4-28,67,59,54,56,50,42,84,71,62,30.09,30.00,8,0,0,0.00
2014-4-29,62,56,52,58,53,48,90,87,83,30.11,30.01,6,0,0,0.00
2014-4-30,79,70,60,70,66,57,90,85,73,30.10,29.97,11,1,0,0.00
2014-5-1,80,71,64,66,62,58,87,74,50,29.99,29.86,8,1,0,0.00
2014-5-2,70,61,48,59,48,42,88,65,42,30.05,29.91,9,0,0,0.00
2014-5-3,78,63,51,55,49,45,86,63,35,29.99,29.92,8,0,0,0.00
2014-5-4,85,66,44,55,49,41,88,60,34,30.07,29.89,13,0,0,0.00
2014-5-5,74,63,53,55,51,48,87,65,48,30.12,29.93,8,0,0,0.00
2014-5-6,86,68,55,62,56,49,82,67,45,30.08,29.94,7,0,0,0.00
2014-5-7,77,66,58,65,59,53,88,78,63,30.23,30.08,6,0,0,0.00
2014-5-8,92,73,54,67,58,51,90,63,32,30.27,30.16,14,0,0,0.00
2014-5-9,90,74,58,67,60,53,87,65,40,30.24,30.10,9,1,0,0.00
2014-5-10,88,74,65,69,62,56,85,68,46,30.20,30.07,11,1,0,0.00
2014-5-11,89,72,59,66,59,54,88,66,40,30.23,30.12,6,0,0,0.00
2014-5-12,93,74,57,69,60,53,89,66,36,30.28,30.18,7,0,0,0.00
2014-5-13,94,78,63,71,64,59,89,67,40,30.24,30.16,8,0,0,0.00
2014-5-14,92,79,67,69,64,60,85,63,44,30.25,30.14,9,1,0,0.00
2014-5-15,79,70,66,68,64,60,90,83,68,30.20,29.92,10,0,0,0.00
2014-5-16,75,65,55,66,54,47,90,69,45,30.11,29.89,8,0,0,0.00
2014-5-17,74,60,44,50,44,39,83,58,37,30.25,30.11,12,1,0,0.00
2014-5-18,70,58,48,50,46,43,85,66,45,30.30,30.24,10,1,0,0.00
2014-5-19,76,59,45,56,45,42,89,64,34,30.38,30.29,8,0,0,0.00
2014-5-20,80,64,47,59,52,43,88,66,45,30.35,30.16,11,1,0,0.00
2014-5-21,89,74,60,65,60,54,81,62,43,30.17,30.01,10,1,0,0.00
2014-5-22,91,77,64,66,63,59,86,64,41,30.03,29.93,8,0,0,0.00
2014-5-23,86,72,60,66,60,53,89,66,45,30.11,29.99,9,1,0,0.00
2014-5-24,82,67,49,55,51,44,86,59,37,30.21,30.09,9,1,0,0.00
2014-5-25,84,68,52,60,55,48,88,65,39,30.28,30.20,8,0,0,0.00
2014-5-26,89,74,58,66,61,54,88,66,45,30.29,30.14,10,1,0,0.00
2014-5-27,91,75,67,71,66,62,88,76,49,30.19,30.04,7,0,0,0.00
2014-5-28,93,77,62,71,66,60,90,71,44,30.09,30.01,5,0,0,0.00
2014-5-29,77,70,66,66,63,60,86,79,68,30.20,30.06,8,0,0,0.00
2014-5-30,74,69,62,66,63,59,89,82,73,30.22,30.13,4,0,0,0.00
2014-5-31,85,71,62,66,58,52,90,68,40,30.31,30.19,7,0,0,0.00
2014-6-1,80,67,52,55,51,47,87,60,39,30.43,30.30,9,0,0,0.00
2014-6-2,85,67,49,58,53,44,86,61,39,30.38,30.19,8,0,0,0.00
2014-6-3,90,71,53,70,60,50,89,72,45,30.21,30.02,8,1,0,0.00
2014-6-4,93,75,62,72,66,60,90,76,42,30.02,29.85,6,0,0,0.00
2014-6-5,93,82,70,72,68,63,82,65,47,29.93,29.80,7,0,0,0.00
2014-6-6,85,75,66,67,64,60,86,69,51,30.05,29.92,9,1,0,0.00
2014-6-7,88,73,60,67,61,56,90,70,45,30.13,30.03,6,0,0,0.00
2014-6-8,88,75,62,66,62,58,88,66,46,30.08,29.96,11,1,0,0.00
2014-6-9,90,78,68,73,67,61,86,71,54,30.01,29.93,5,0,0,0.00
2014-6-10,95,80,67,74,69,64,90,72,47,30.04,29.97,7,0,0,0.00
2014-6-11,94,78,68,72,67,62,89,73,46,30.06,29.92,6,0,0,0.00
2014-6-12,85,75,68,74,68,64,90,81,62,30.03,29.90,7,0,0,0.00
2014-6-13,87,74,66,72,67,63,90,80,55,29.96,29.87,7,0,0,0.00
2014-6-14,89,74,59,69,63,55,91,73,44,30.16,29.96,7,0,0,0.00
2014-6-15,90,73,58,70,63,54,89,74,48,30.27,30.15,7,0,0,0.00
2014-6-16,98,81,67,74,69,64,90,70,42,30.28,30.16,6,0,0,0.00
2014-6-17,96,81,69,76,70,48,90,71,48,30.25,30.14,8,0,0,0.00
2014-6-18,98,83,69,74,69,64,86,65,43,30.20,30.12,6,0,0,0.00
2014-6-19,98,82,71,75,70,66,88,67,42,30.18,30.07,7,0,0,0.00
2014-6-20,95,78,67,74,68,64,90,76,49,30.13,30.00,5,0,0,0.00
2014-6-21,93,78,67,75,70,64,91,78,51,30.05,29.88,6,0,0,0.00
2014-6-22,86,74,68,72,68,64,90,82,63,30.08,29.91,7,0,0,0.00
2014-6-23,87,75,63,68,64,60,90,72,49,30.22,30.07,9,1,0,0.00
2014-6-24,88,76,63,72,67,60,89,74,54,30.24,30.11,9,1,0,0.00
2014-6-25,92,80,72,74,71,68,88,75,53,30.12,29.96,8,1,0,0.00
2014-6-26,94,81,67,72,69,64,90,69,45,30.07,29.99,8,1,0,0.00
2014-6-27,86,75,70,74,69,66,90,81,65,30.21,30.07,8,0,0,0.00
2014-6-28,89,76,69,70,67,56,90,74,54,30.33,30.20,9,1,0,0.00
2014-6-29,87,73,58,64,60,55,89,66,41,30.33,30.21,8,0,0,0.00
2014-6-30,92,78,64,71,66,60,89,67,46,30.22,30.05,8,0,0,0.00
2014-7-1,92,81,72,74,68,64,76,66,51,30.09,29.98,8,0,0,0.00
2014-7-2,98,85,75,76,71,67,79,65,49,30.07,29.99,8,1,0,0.00
2014-7-3,92,80,73,76,71,67,88,76,52,30.10,29.95,12,1,0,0.00
2014-7-4,89,77,67,68,64,59,87,65,44,30.25,29.96,8,1,0,0.00
2014-7-5,86,71,57,60,54,51,85,58,34,30.37,30.25,8,1,0,0.00
2014-7-6,91,74,58,66,59,53,89,63,34,30.28,30.11,8,0,0,0.00
2014-7-7,95,81,67,71,66,60,87,62,39,30.15,30.00,7,0,0,0.00
2014-7-8,98,85,73,72,66,60,82,56,32,30.10,29.95,9,0,0,0.00
2014-7-9,98,81,73,72,68,64,88,65,41,30.12,30.01,12,0,0,0.00
2014-7-10,88,76,70,74,69,66,89,80,61,30.19,30.08,8,0,0,0.00
2014-7-11,88,76,68,70,68,65,91,77,53,30.29,30.18,8,0,0,0.00
2014-7-12,92,78,64,74,66,61,90,71,45,30.31,30.21,8,1,0,0.00
2014-7-13,97,82,69,74,68,65,89,66,38,30.23,30.08,8,0,0,0.00
2014-7-14,98,84,74,74,71,68,85,66,41,30.11,29.94,7,0,0,0.00
2014-7-15,93,79,69,75,71,66,90,78,55,29.97,29.83,9,0,0,0.00
2014-7-16,81,72,64,69,65,60,91,79,54,30.02,29.87,5,0,0,0.00
2014-7-17,88,72,58,66,61,55,90,70,45,30.19,30.02,6,0,0,0.00
2014-7-18,88,75,63,67,61,57,89,65,38,30.28,30.18,8,0,0,0.00
2014-7-19,85,73,65,63,61,58,83,66,43,30.26,30.17,8,0,0,0.00
2014-7-20,82,73,67,71,66,61,87,79,68,30.22,30.14,7,0,0,0.00
2014-7-21,79,74,71,73,70,68,90,88,82,30.24,30.14,5,0,0,0.00
2014-7-22,85,76,70,74,70,67,91,82,67,30.25,30.15,4,0,0,0.00
2014-7-23,95,80,70,77,71,67,91,75,50,30.18,29.99,8,0,0,0.00
2014-7-24,90,78,67,74,70,64,89,79,58,30.05,29.89,7,0,0,0.00
2014-7-25,86,74,66,70,66,62,91,78,55,30.15,30.04,5,0,0,0.00
2014-7-26,92,77,67,74,69,63,91,78,53,30.13,30.00,6,0,0,0.00
2014-7-27,87,78,70,75,70,66,89,79,64,30.07,29.83,8,0,0,0.00
2014-7-28,90,81,67,71,65,58,78,60,45,29.95,29.80,8,1,0,0.00
2014-7-29,86,71,60,62,59,55,86,67,43,30.07,29.94,8,0,0,0.00
2014-7-30,82,70,62,67,63,58,89,78,57,30.17,30.06,9,0,0,0.00
2014-7-31,83,73,64,70,66,61,91,80,60,30.23,30.14,6,0,0,0.00
2014-8-1,76,69,64,70,64,60,90,87,72,30.24,30.14,9,0,0,0.00
2014-8-2,69,66,64,66,63,61,91,90,88,30.21,30.13,4,0,0,0.00
2014-8-3,82,71,66,71,66,63,91,85,68,30.22,30.13,4,0,0,0.00
2014-8-4,86,73,66,100,67,63,91,79,52,30.20,30.11,5,0,0,0.00
2014-8-5,139,76,67,74,68,64,91,76,51,30.15,30.04,8,0,0,0.00
2014-8-6,93,80,69,71,67,64,90,69,40,30.07,29.98,7,0,0,0.00
2014-8-7,89,77,68,72,67,64,89,74,54,30.12,30.00,7,0,0,0.00
2014-8-8,81,74,67,70,67,64,90,79,61,30.21,30.11,5,0,0,0.00
2014-8-9,72,67,63,66,63,60,90,87,79,30.21,30.13,8,0,0,0.00
2014-8-10,83,72,65,70,65,62,91,81,64,30.20,30.12,6,0,0,0.00
2014-8-11,86,74,69,71,68,65,89,80,60,30.17,30.05,12,0,0,0.00
2014-8-12,89,75,69,76,69,65,90,83,63,30.06,29.85,7,0,0,0.00
2014-8-13,84,74,65,69,64,58,91,74,51,30.05,29.89,7,0,0,0.00
2014-8-14,87,70,56,64,58,52,90,69,41,30.14,30.03,5,0,0,0.00
2014-8-15,87,73,59,69,63,56,90,74,52,30.13,30.03,5,0,0,0.00
2014-8-16,92,78,67,71,67,63,89,72,47,30.12,30.05,4,0,0,0.00
2014-8-17,92,78,68,73,68,65,90,74,46,30.10,30.03,4,0,0,0.00
2014-8-18,88,76,71,74,70,66,90,81,62,30.03,29.86,5,0,0,0.00
2014-8-19,90,76,68,74,70,65,91,81,55,29.97,29.85,6,0,0,0.00
2014-8-20,92,77,70,75,70,67,91,80,56,30.11,29.96,7,0,0,0.00
2014-8-21,95,80,69,76,71,66,91,76,48,30.15,30.06,5,0,0,0.00
2014-8-22,94,80,70,76,72,67,91,76,52,30.12,30.03,6,0,0,0.00
2014-8-23,87,78,72,74,71,68,90,80,65,30.08,29.99,17,0,0,0.00
2014-8-24,82,75,66,68,64,60,87,69,56,30.18,30.07,15,1,0,0.00
2014-8-25,80,74,65,65,63,60,85,67,56,30.21,30.15,11,1,0,0.00
2014-8-26,84,74,62,66,63,58,89,68,49,30.24,30.15,9,1,0,0.00
2014-8-27,90,74,58,67,62,54,90,69,43,30.16,30.05,8,1,0,0.00
2014-8-28,95,78,62,74,68,58,90,73,48,30.09,30.03,8,0,0,0.00
2014-8-29,84,77,72,72,70,68,89,79,64,30.25,30.09,9,0,0,0.00
2014-8-30,93,80,71,74,70,66,87,74,52,30.31,30.20,7,0,0,0.00
2014-8-31,94,81,73,74,71,69,89,74,50,30.27,30.13,7,0,0,0.00
2014-9-1,96,82,72,76,71,68,90,73,47,30.19,30.10,6,0,0,0.00
2014-9-2,98,82,70,75,70,66,89,69,41,30.15,30.02,7,0,0,0.00
2014-9-3,97,81,71,74,70,67,88,71,45,30.21,30.05,7,0,0,0.00
2014-9-4,88,77,70,76,71,67,91,83,64,30.29,30.17,10,0,0,0.00
2014-9-5,94,79,69,77,71,67,91,77,48,30.29,30.15,4,0,0,0.00
2014-9-6,93,79,68,75,70,66,91,76,52,30.18,30.02,3,0,0,0.00
2014-9-7,79,74,70,72,68,64,90,82,74,30.18,30.05,8,0,0,0.00
2014-9-8,72,69,67,68,66,64,91,89,81,30.19,30.10,6,0,0,0.00
2014-9-9,75,70,65,68,65,62,91,87,79,30.19,30.12,5,0,0,0.00
2014-9-10,82,72,66,70,66,63,91,82,62,30.22,30.12,0,0,0,0.00
2014-9-11,89,76,64,74,68,61,92,80,60,30.14,30.02,7,0,0,0.00
2014-9-12,82,74,70,71,68,65,91,84,68,30.18,30.05,6,0,0,0.00
2014-9-13,80,72,68,74,68,64,91,86,77,30.26,30.13,2,0,0,0.00
2014-9-14,72,65,60,64,58,54,85,76,65,30.35,30.25,7,0,0,0.00
2014-9-15,78,68,62,65,61,58,88,80,63,30.32,30.17,5,0,0,0.00
2014-9-16,86,74,67,70,65,63,90,76,51,30.17,30.02,7,0,0,0.00
2014-9-17,80,71,65,66,64,60,90,79,62,30.08,29.99,7,0,0,0.00
2014-9-18,84,69,58,65,60,55,91,75,51,30.14,30.01,2,0,0,0.00
2014-9-19,82,70,62,63,60,57,87,72,50,30.32,30.14,10,0,0,0.00
2014-9-20,83,68,56,63,59,53,90,73,47,30.32,30.06,6,0,0,0.00